Weather at Dowd Field [CLOSED]

Public forecast

Using degrees Fahrenheit for public forecast. Weather courtesy of forecast.io.

Closest aviation weather report (METAR) to Dowd Field

Closest report is Chippewa County International Airport, 11.6 nm (21.5 km) ENE. Retrieved 2021/07/31 23:14 UTC (40 minutes ago):

KCIU 312314Z AUTO 32009KT 10SM BKN015 BKN019 OVC026 19/16 A2989 RMK AO2

Closest aviation forecast (TAF) to Dowd Field

Closest forecast is Sault Ste Marie Airport, 19.5 nm (36.2 km) NNE. Retrieved 2021/07/31 20:39 UTC (3 hours ago):

TAF TAF CYAM 311938Z 3120/0108 VRB03KT P6SM SCT005 OVC020 TEMPO 3120/3123 5SM -SHRA BR BKN005 OVC012 PROB30 3120/3123 2SM TSRA BR BKN008 OVC015CB FM312300 31012KT P6SM OVC012 TEMPO 3123/0106 5SM -RA BR OVC005 FM010600 32010KT P6SM BKN015 PROB30 0106/0108 2SM TSRA BR OVC015CB RMK NXT FCST BY 010200Z